Deatsville, Kentucky
Current Conditions -  °F | °C
As of 6:56 PM on Wednesday 28 Jan 2015 (Local Time) from KSDF Reporting Station
Broken Clouds Broken Clouds  
Wind Chill: 32°   Ceiling: 25000
Heat Index: 37°   Visibility: 10mi
Dew Point: 16°   Wind: 7mph
Humidity: 42%   Direction: 120°ESE
Pressure: 30.21"   Gusts: NA
Location:  37.9212°N, 85.4864°W
Report Text: KSDF 282356Z 12006KT 10SM FEW200 BKN250 03/M09 A3021 RMK AO2 SLP236 T00281089 10050 20017 56014
Loading
Personal Weather Stations






























Interactive Weather Map New forecast layout! Learn more

10-Day Weather Forecast

Advertisements
Track Severe Weather on mobile